Time,TemperatureF,DewpointF,PressureIn,WindDirection,WindDirectionDegrees,WindSpeedMPH,WindSpeedGustMPH,Humidity,HourlyPrecipIn,Conditions,Clouds,dailyrainin,SolarRadiationWatts/m^2,SoftwareType,DateUTC
2013-03-31 00:00:00,44.4,39.6,29.87,West,275,3.0,4.0,83,0.00,,,0.11,0,Wunderground v.1.15,2013-03-31 05:00:00,
2013-03-31 00:06:00,44.2,39.4,29.87,West,272,3.0,6.0,83,0.00,,,0.00,0,Wunderground v.1.15,2013-03-31 05:06:00,
2013-03-31 00:11:00,44.0,39.2,29.87,West,259,5.0,5.0,83,0.00,,,0.00,0,Wunderground v.1.15,2013-03-31 05:11:00,
2013-03-31 00:16:00,43.9,39.4,29.87,WSW,257,4.0,5.0,84,0.00,,,0.00,0,Wunderground v.1.15,2013-03-31 05:16:00,
2013-03-31 00:22:00,43.7,39.2,29.87,WSW,258,2.0,8.0,84,0.00,,,0.00,0,Wunderground v.1.15,2013-03-31 05:22:00,
2013-03-31 00:27:00,43.6,39.1,29.87,WSW,254,3.0,8.0,84,0.00,,,0.00,0,Wunderground v.1.15,2013-03-31 05:27:00,
2013-03-31 00:32:00,43.4,38.9,29.87,WSW,256,4.0,4.0,84,0.00,,,0.00,0,Wunderground v.1.15,2013-03-31 05:32:00,
2013-03-31 00:37:00,43.2,38.7,29.88,WSW,252,2.0,7.0,84,0.00,,,0.00,0,Wunderground v.1.15,2013-03-31 05:37:00,
2013-03-31 00:42:00,43.0,38.8,29.87,WSW,254,5.0,5.0,85,0.00,,,0.00,0,Wunderground v.1.15,2013-03-31 05:42:00,
2013-03-31 00:48:00,42.8,38.6,29.87,WSW,254,2.0,6.0,85,0.00,,,0.00,0,Wunderground v.1.15,2013-03-31 05:48:00,
2013-03-31 00:54:00,42.5,38.3,29.87,West,261,1.0,5.0,85,0.00,,,0.00,0,Wunderground v.1.15,2013-03-31 05:54:00,
2013-03-31 00:59:00,42.3,38.4,29.87,West,261,0.0,5.0,86,0.00,,,0.00,0,Wunderground v.1.15,2013-03-31 05:59:00,
2013-03-31 01:04:00,42.2,38.3,29.87,West,261,0.0,2.0,86,0.00,,,0.00,0,Wunderground v.1.15,2013-03-31 06:04:00,
2013-03-31 01:09:00,41.9,38.0,29.87,West,261,1.0,2.0,86,0.00,,,0.00,0,Wunderground v.1.15,2013-03-31 06:09:00,
2013-03-31 01:15:00,41.5,37.6,29.87,West,261,2.0,2.0,86,0.00,,,0.00,0,Wunderground v.1.15,2013-03-31 06:15:00,
2013-03-31 01:20:00,40.9,37.0,29.87,West,261,1.0,1.0,86,0.00,,,0.00,0,Wunderground v.1.15,2013-03-31 06:20:00,
2013-03-31 01:25:00,40.4,36.5,29.87,West,261,2.0,2.0,86,0.00,,,0.00,0,Wunderground v.1.15,2013-03-31 06:25:00,
2013-03-31 01:30:00,39.9,36.1,29.87,West,261,1.0,1.0,86,0.00,,,0.00,0,Wunderground v.1.15,2013-03-31 06:30:00,
2013-03-31 01:36:00,39.4,35.9,29.87,West,261,0.0,1.0,87,0.00,,,0.00,0,Wunderground v.1.15,2013-03-31 06:36:00,
2013-03-31 01:42:00,39.2,35.7,29.87,West,271,3.0,5.0,87,0.00,,,0.00,0,Wunderground v.1.15,2013-03-31 06:42:00,
2013-03-31 01:48:00,39.7,36.4,29.87,West,268,9.0,9.0,88,0.00,,,0.00,0,Wunderground v.1.15,2013-03-31 06:48:00,
2013-03-31 01:53:00,40.6,37.3,29.87,West,272,6.0,7.0,88,0.00,,,0.00,0,Wunderground v.1.15,2013-03-31 06:53:00,
2013-03-31 01:58:00,41.4,38.1,29.87,WNW,283,6.0,10.0,88,0.00,,,0.00,0,Wunderground v.1.15,2013-03-31 06:58:00,
2013-03-31 02:03:00,41.7,38.1,29.87,West,279,6.0,10.0,87,0.00,,,0.00,0,Wunderground v.1.15,2013-03-31 07:03:00,
2013-03-31 02:08:00,41.8,37.9,29.87,West,281,6.0,10.0,86,0.00,,,0.00,0,Wunderground v.1.15,2013-03-31 07:08:00,
2013-03-31 02:13:00,41.6,37.7,29.87,West,281,9.0,10.0,86,0.00,,,0.00,0,Wunderground v.1.15,2013-03-31 07:13:00,
2013-03-31 02:18:00,41.5,37.3,29.87,WNW,285,6.0,10.0,85,0.00,,,0.00,0,Wunderground v.1.15,2013-03-31 07:18:00,
2013-03-31 02:23:00,41.4,37.2,29.87,West,280,8.0,12.0,85,0.00,,,0.00,0,Wunderground v.1.15,2013-03-31 07:23:00,
2013-03-31 02:28:00,41.6,37.1,29.87,West,280,11.0,13.0,84,0.00,,,0.00,0,Wunderground v.1.15,2013-03-31 07:28:00,
2013-03-31 02:33:00,41.5,37.0,29.87,West,279,11.0,11.0,84,0.00,,,0.00,0,Wunderground v.1.15,2013-03-31 07:33:00,
2013-03-31 02:38:00,41.6,36.8,29.87,WNW,287,13.0,18.0,83,0.00,,,0.00,0,Wunderground v.1.15,2013-03-31 07:38:00,
2013-03-31 02:43:00,41.9,37.1,29.88,WNW,285,6.0,14.0,83,0.00,,,0.00,0,Wunderground v.1.15,2013-03-31 07:43:00,
2013-03-31 02:48:00,42.1,37.0,29.88,WNW,284,11.0,17.0,82,0.00,,,0.00,0,Wunderground v.1.15,2013-03-31 07:48:00,
2013-03-31 02:53:00,42.1,37.0,29.88,WNW,296,7.0,12.0,82,0.00,,,0.00,0,Wunderground v.1.15,2013-03-31 07:53:00,
2013-03-31 02:58:00,42.1,37.0,29.88,WNW,291,12.0,12.0,82,0.00,,,0.00,0,Wunderground v.1.15,2013-03-31 07:58:00,
2013-03-31 03:03:00,42.2,36.8,29.88,WNW,288,6.0,14.0,81,0.00,,,0.00,0,Wunderground v.1.15,2013-03-31 08:03:00,
2013-03-31 03:08:00,42.1,36.7,29.88,WNW,302,6.0,14.0,81,0.00,,,0.00,0,Wunderground v.1.15,2013-03-31 08:08:00,
2013-03-31 03:13:00,42.0,36.3,29.88,WNW,302,7.0,12.0,80,0.00,,,0.00,0,Wunderground v.1.15,2013-03-31 08:13:00,
2013-03-31 03:18:00,42.2,36.2,29.88,WNW,292,8.0,18.0,79,0.00,,,0.00,0,Wunderground v.1.15,2013-03-31 08:18:00,
2013-03-31 03:24:00,42.4,36.0,29.88,WNW,294,8.0,15.0,78,0.00,,,0.00,0,Wunderground v.1.15,2013-03-31 08:24:00,
2013-03-31 03:28:00,42.5,36.1,29.88,WNW,288,11.0,16.0,78,0.00,,,0.00,0,Wunderground v.1.15,2013-03-31 08:28:00,
2013-03-31 03:34:00,42.4,35.7,29.88,WNW,298,7.0,17.0,77,0.00,,,0.00,0,Wunderground v.1.15,2013-03-31 08:34:00,
2013-03-31 03:39:00,42.2,35.8,29.88,WNW,292,9.0,17.0,78,0.00,,,0.00,0,Wunderground v.1.15,2013-03-31 08:39:00,
2013-03-31 03:44:00,42.0,35.6,29.88,WNW,293,7.0,16.0,78,0.00,,,0.00,0,Wunderground v.1.15,2013-03-31 08:44:00,
2013-03-31 03:49:00,41.9,35.5,29.88,NW,306,7.0,16.0,78,0.00,,,0.00,0,Wunderground v.1.15,2013-03-31 08:49:00,
2013-03-31 03:54:00,41.8,35.4,29.88,WNW,298,7.0,16.0,78,0.00,,,0.00,0,Wunderground v.1.15,2013-03-31 08:54:00,
2013-03-31 03:59:00,41.8,35.4,29.88,WNW,297,9.0,16.0,78,0.00,,,0.00,0,Wunderground v.1.15,2013-03-31 08:59:00,
2013-03-31 04:04:00,41.9,35.5,29.88,WNW,295,9.0,13.0,78,0.00,,,0.00,0,Wunderground v.1.15,2013-03-31 09:04:00,
2013-03-31 04:09:00,41.7,35.3,29.88,NW,308,8.0,15.0,78,0.00,,,0.00,0,Wunderground v.1.15,2013-03-31 09:09:00,
2013-03-31 04:14:00,41.4,35.1,29.88,WNW,299,10.0,15.0,78,0.00,,,0.00,0,Wunderground v.1.15,2013-03-31 09:14:00,
2013-03-31 04:19:00,41.2,35.2,29.88,NW,308,9.0,15.0,79,0.00,,,0.00,0,Wunderground v.1.15,2013-03-31 09:19:00,
2013-03-31 04:24:00,41.0,35.0,29.88,NW,312,9.0,14.0,79,0.00,,,0.00,0,Wunderground v.1.15,2013-03-31 09:24:00,
2013-03-31 04:29:00,40.7,35.0,29.89,WNW,284,12.0,14.0,80,0.00,,,0.00,0,Wunderground v.1.15,2013-03-31 09:29:00,
2013-03-31 04:34:00,40.6,34.9,29.89,WNW,300,8.0,14.0,80,0.00,,,0.00,0,Wunderground v.1.15,2013-03-31 09:34:00,
2013-03-31 04:39:00,40.3,34.9,29.89,NW,309,7.0,15.0,81,0.00,,,0.00,0,Wunderground v.1.15,2013-03-31 09:39:00,
2013-03-31 04:44:00,40.2,34.8,29.89,NW,311,6.0,14.0,81,0.00,,,0.00,0,Wunderground v.1.15,2013-03-31 09:44:00,
2013-03-31 04:50:00,40.0,34.6,29.89,NW,315,9.0,14.0,81,0.00,,,0.00,0,Wunderground v.1.15,2013-03-31 09:50:00,
2013-03-31 04:55:00,39.8,34.8,29.89,NW,312,11.0,14.0,82,0.00,,,0.00,0,Wunderground v.1.15,2013-03-31 09:55:00,
2013-03-31 05:00:00,39.6,34.6,29.89,NW,304,7.0,14.0,82,0.00,,,0.00,0,Wunderground v.1.15,2013-03-31 10:00:00,
2013-03-31 05:05:00,39.3,34.6,29.90,NW,306,15.0,15.0,83,0.00,,,0.00,0,Wunderground v.1.15,2013-03-31 10:05:00,
2013-03-31 05:10:00,39.0,34.3,29.90,NW,325,6.0,9.0,83,0.00,,,0.00,0,Wunderground v.1.15,2013-03-31 10:10:00,
2013-03-31 05:15:00,38.7,34.3,29.90,NNW,329,6.0,12.0,84,0.00,,,0.00,0,Wunderground v.1.15,2013-03-31 10:15:00,
2013-03-31 05:20:00,38.5,34.1,29.90,NW,313,6.0,8.0,84,0.00,,,0.00,0,Wunderground v.1.15,2013-03-31 10:20:00,
2013-03-31 05:25:00,38.4,34.0,29.90,NNW,327,5.0,10.0,84,0.00,,,0.00,0,Wunderground v.1.15,2013-03-31 10:25:00,
2013-03-31 05:30:00,38.2,33.8,29.90,NW,315,6.0,6.0,84,0.00,,,0.00,0,Wunderground v.1.15,2013-03-31 10:30:00,
2013-03-31 05:35:00,37.9,33.8,29.89,NW,324,4.0,9.0,85,0.00,,,0.00,0,Wunderground v.1.15,2013-03-31 10:35:00,
2013-03-31 05:40:00,37.5,33.4,29.90,NW,322,4.0,5.0,85,0.00,,,0.00,0,Wunderground v.1.15,2013-03-31 10:40:00,
2013-03-31 05:45:00,37.3,33.5,29.89,NNW,340,3.0,7.0,86,0.00,,,0.00,0,Wunderground v.1.15,2013-03-31 10:45:00,
2013-03-31 05:50:00,37.1,33.3,29.89,WNW,300,3.0,4.0,86,0.00,,,0.00,0,Wunderground v.1.15,2013-03-31 10:50:00,
2013-03-31 05:55:00,36.8,33.0,29.89,WNW,302,3.0,5.0,86,0.00,,,0.00,0,Wunderground v.1.15,2013-03-31 10:55:00,
2013-03-31 06:00:00,36.4,32.6,29.90,WNW,292,1.0,2.0,86,0.00,,,0.00,0,Wunderground v.1.15,2013-03-31 11:00:00,
2013-03-31 06:05:00,36.1,32.6,29.89,WNW,292,1.0,2.0,87,0.00,,,0.00,0,Wunderground v.1.15,2013-03-31 11:05:00,
2013-03-31 06:10:00,35.9,32.4,29.90,WNW,292,1.0,1.0,87,0.00,,,0.00,0,Wunderground v.1.15,2013-03-31 11:10:00,
2013-03-31 06:15:00,35.6,32.1,29.90,West,275,1.0,4.0,87,0.00,,,0.00,0,Wunderground v.1.15,2013-03-31 11:15:00,
2013-03-31 06:20:00,35.2,31.7,29.90,West,278,2.0,4.0,87,0.00,,,0.00,0,Wunderground v.1.15,2013-03-31 11:20:00,
2013-03-31 06:25:00,35.0,31.5,29.90,West,263,5.0,5.0,87,0.00,,,0.00,0,Wunderground v.1.15,2013-03-31 11:25:00,
2013-03-31 06:30:00,35.0,31.5,29.90,West,278,5.0,6.0,87,0.00,,,0.00,0,Wunderground v.1.15,2013-03-31 11:30:00,
2013-03-31 06:35:00,35.3,32.1,29.90,West,278,6.0,9.0,88,0.00,,,0.00,0,Wunderground v.1.15,2013-03-31 11:35:00,
2013-03-31 06:40:00,35.4,32.2,29.90,West,275,8.0,8.0,88,0.00,,,0.00,0,Wunderground v.1.15,2013-03-31 11:40:00,
2013-03-31 06:45:00,35.4,32.2,29.90,West,272,8.0,8.0,88,0.00,,,0.00,0,Wunderground v.1.15,2013-03-31 11:45:00,
2013-03-31 06:50:00,35.3,32.1,29.91,West,272,7.0,7.0,88,0.00,,,0.00,0,Wunderground v.1.15,2013-03-31 11:50:00,
2013-03-31 06:55:00,35.3,32.1,29.91,West,272,4.0,10.0,88,0.00,,,0.00,0,Wunderground v.1.15,2013-03-31 11:55:00,
2013-03-31 07:00:00,35.2,32.0,29.91,WSW,256,6.0,6.0,88,0.00,,,0.00,0,Wunderground v.1.15,2013-03-31 12:00:00,
2013-03-31 07:05:00,35.1,31.9,29.91,West,272,5.0,9.0,88,0.00,,,0.00,0,Wunderground v.1.15,2013-03-31 12:05:00,
2013-03-31 07:10:00,35.0,31.8,29.91,WNW,288,6.0,6.0,88,0.00,,,0.00,0,Wunderground v.1.15,2013-03-31 12:10:00,
2013-03-31 07:15:00,34.9,31.7,29.91,West,271,5.0,7.0,88,0.00,,,0.00,0,Wunderground v.1.15,2013-03-31 12:15:00,
2013-03-31 07:20:00,34.8,31.6,29.92,WNW,286,3.0,7.0,88,0.00,,,0.00,5,Wunderground v.1.15,2013-03-31 12:20:00,
2013-03-31 07:25:00,34.8,31.6,29.92,West,278,4.0,8.0,88,0.00,,,0.00,9,Wunderground v.1.15,2013-03-31 12:25:00,
2013-03-31 07:30:00,34.7,31.5,29.91,West,279,5.0,6.0,88,0.00,,,0.00,14,Wunderground v.1.15,2013-03-31 12:30:00,
2013-03-31 07:35:00,34.6,31.4,29.90,West,271,3.0,7.0,88,0.00,,,0.00,19,Wunderground v.1.15,2013-03-31 12:35:00,
2013-03-31 07:40:00,34.6,31.4,29.90,West,271,3.0,4.0,88,0.00,,,0.00,25,Wunderground v.1.15,2013-03-31 12:40:00,
2013-03-31 07:46:00,34.5,31.3,29.90,WNW,284,3.0,6.0,88,0.00,,,0.00,32,Wunderground v.1.15,2013-03-31 12:46:00,
2013-03-31 07:51:00,34.5,31.3,29.91,WNW,286,5.0,7.0,88,0.00,,,0.00,39,Wunderground v.1.15,2013-03-31 12:51:00,
2013-03-31 07:56:00,34.5,31.3,29.91,WNW,282,4.0,8.0,88,0.00,,,0.00,42,Wunderground v.1.15,2013-03-31 12:56:00,
2013-03-31 08:01:00,34.8,31.6,29.91,West,269,6.0,10.0,88,0.00,,,0.00,53,Wunderground v.1.15,2013-03-31 13:01:00,
2013-03-31 08:06:00,35.3,32.1,29.92,West,280,7.0,10.0,88,0.00,,,0.00,62,Wunderground v.1.15,2013-03-31 13:06:00,
2013-03-31 08:11:00,35.7,32.5,29.92,WNW,282,4.0,7.0,88,0.00,,,0.00,86,Wunderground v.1.15,2013-03-31 13:11:00,
2013-03-31 08:16:00,35.9,32.7,29.92,West,278,7.0,9.0,88,0.00,,,0.00,104,Wunderground v.1.15,2013-03-31 13:16:00,
2013-03-31 08:21:00,36.3,32.8,29.92,West,267,6.0,8.0,87,0.00,,,0.00,120,Wunderground v.1.15,2013-03-31 13:21:00,
2013-03-31 08:26:00,36.6,33.1,29.91,West,271,4.0,9.0,87,0.00,,,0.00,128,Wunderground v.1.15,2013-03-31 13:26:00,
2013-03-31 08:31:00,37.0,33.5,29.91,West,274,6.0,8.0,87,0.00,,,0.00,153,Wunderground v.1.15,2013-03-31 13:31:00,
2013-03-31 08:36:00,37.3,33.5,29.91,West,279,9.0,11.0,86,0.00,,,0.00,158,Wunderground v.1.15,2013-03-31 13:36:00,
2013-03-31 08:41:00,37.8,34.0,29.91,West,279,5.0,8.0,86,0.00,,,0.00,185,Wunderground v.1.15,2013-03-31 13:41:00,
2013-03-31 08:46:00,38.2,34.1,29.91,West,277,9.0,14.0,85,0.00,,,0.00,204,Wunderground v.1.15,2013-03-31 13:46:00,
2013-03-31 08:51:00,38.6,34.5,29.91,WNW,290,8.0,11.0,85,0.00,,,0.00,244,Wunderground v.1.15,2013-03-31 13:51:00,
2013-03-31 08:56:00,39.0,34.6,29.91,WNW,285,12.0,14.0,84,0.00,,,0.00,179,Wunderground v.1.15,2013-03-31 13:56:00,
2013-03-31 09:01:00,39.5,34.8,29.90,WNW,288,8.0,10.0,83,0.00,,,0.00,285,Wunderground v.1.15,2013-03-31 14:01:00,
2013-03-31 09:05:00,40.2,35.4,29.91,WNW,302,6.0,12.0,83,0.00,,,0.00,308,Wunderground v.1.15,2013-03-31 14:05:00,
2013-03-31 09:10:00,40.9,35.8,29.91,NW,321,7.0,9.0,82,0.00,,,0.00,269,Wunderground v.1.15,2013-03-31 14:10:00,
2013-03-31 09:15:00,41.2,35.5,29.91,NW,313,6.0,11.0,80,0.00,,,0.00,287,Wunderground v.1.15,2013-03-31 14:15:00,
2013-03-31 09:20:00,41.6,35.9,29.91,NW,322,5.0,8.0,80,0.00,,,0.00,352,Wunderground v.1.15,2013-03-31 14:20:00,
2013-03-31 09:25:00,42.1,36.1,29.91,NNW,328,4.0,8.0,79,0.00,,,0.00,350,Wunderground v.1.15,2013-03-31 14:25:00,
2013-03-31 09:30:00,42.4,35.7,29.90,WNW,298,7.0,9.0,77,0.00,,,0.00,380,Wunderground v.1.15,2013-03-31 14:30:00,
2013-03-31 09:36:00,42.8,35.8,29.91,WNW,297,9.0,13.0,76,0.00,,,0.00,396,Wunderground v.1.15,2013-03-31 14:36:00,
2013-03-31 09:40:00,43.3,35.9,29.91,NW,324,7.0,12.0,75,0.00,,,0.00,415,Wunderground v.1.15,2013-03-31 14:40:00,
2013-03-31 09:45:00,44.2,36.4,29.91,North,351,13.0,16.0,74,0.00,,,0.00,427,Wunderground v.1.15,2013-03-31 14:45:00,
2013-03-31 09:51:00,44.4,35.6,29.91,NW,325,4.0,10.0,71,0.00,,,0.00,445,Wunderground v.1.15,2013-03-31 14:51:00,
2013-03-31 09:56:00,44.6,35.8,29.91,NW,325,12.0,14.0,71,0.00,,,0.00,464,Wunderground v.1.15,2013-03-31 14:56:00,
2013-03-31 10:01:00,45.2,36.4,29.91,NW,321,7.0,9.0,71,0.00,,,0.00,478,Wunderground v.1.15,2013-03-31 15:01:00,
2013-03-31 10:07:00,45.0,35.1,29.91,NW,310,11.0,15.0,68,0.00,,,0.00,496,Wunderground v.1.15,2013-03-31 15:07:00,
2013-03-31 10:12:00,44.9,34.2,29.91,NNW,340,13.0,15.0,66,0.00,,,0.00,510,Wunderground v.1.15,2013-03-31 15:12:00,
2013-03-31 10:17:00,45.1,34.4,29.91,North,5,4.0,15.0,66,0.00,,,0.00,526,Wunderground v.1.15,2013-03-31 15:17:00,
2013-03-31 10:22:00,45.4,34.7,29.92,NW,307,13.0,14.0,66,0.00,,,0.00,540,Wunderground v.1.15,2013-03-31 15:22:00,
2013-03-31 10:27:00,45.5,34.4,29.92,WNW,292,5.0,15.0,65,0.00,,,0.00,550,Wunderground v.1.15,2013-03-31 15:27:00,
2013-03-31 10:32:00,45.7,34.2,29.92,WNW,292,8.0,17.0,64,0.00,,,0.00,571,Wunderground v.1.15,2013-03-31 15:32:00,
2013-03-31 10:37:00,45.4,32.7,29.91,NW,314,11.0,17.0,61,0.00,,,0.00,585,Wunderground v.1.15,2013-03-31 15:37:00,
2013-03-31 10:43:00,46.0,34.1,29.91,NNW,342,7.0,14.0,63,0.00,,,0.00,599,Wunderground v.1.15,2013-03-31 15:43:00,
2013-03-31 10:48:00,46.5,33.8,29.92,NNW,337,5.0,14.0,61,0.00,,,0.00,610,Wunderground v.1.15,2013-03-31 15:48:00,
2013-03-31 10:53:00,47.0,33.8,29.92,NW,316,9.0,15.0,60,0.00,,,0.00,628,Wunderground v.1.15,2013-03-31 15:53:00,
2013-03-31 10:58:00,46.7,31.8,29.92,NNW,345,12.0,15.0,56,0.00,,,0.00,642,Wunderground v.1.15,2013-03-31 15:58:00,
2013-03-31 11:03:00,47.0,32.5,29.91,NNW,344,11.0,14.0,57,0.00,,,0.00,652,Wunderground v.1.15,2013-03-31 16:03:00,
2013-03-31 11:08:00,47.2,32.3,29.92,North,350,12.0,14.0,56,0.00,,,0.00,664,Wunderground v.1.15,2013-03-31 16:08:00,
2013-03-31 11:13:00,47.5,32.6,29.92,North,350,12.0,13.0,56,0.00,,,0.00,679,Wunderground v.1.15,2013-03-31 16:13:00,
2013-03-31 11:18:00,47.8,32.9,29.91,NW,309,7.0,14.0,56,0.00,,,0.00,689,Wunderground v.1.15,2013-03-31 16:18:00,
2013-03-31 11:23:00,47.7,30.9,29.91,North,355,9.0,17.0,52,0.00,,,0.00,703,Wunderground v.1.15,2013-03-31 16:23:00,
2013-03-31 11:28:00,47.6,30.8,29.91,North,355,8.0,17.0,52,0.00,,,0.00,712,Wunderground v.1.15,2013-03-31 16:28:00,
2013-03-31 11:33:00,47.4,29.7,29.91,NW,317,13.0,15.0,50,0.00,,,0.00,721,Wunderground v.1.15,2013-03-31 16:33:00,
2013-03-31 11:38:00,47.6,29.4,29.91,North,351,4.0,16.0,49,0.00,,,0.00,733,Wunderground v.1.15,2013-03-31 16:38:00,
2013-03-31 11:43:00,48.3,31.0,29.91,North,350,8.0,13.0,51,0.00,,,0.00,742,Wunderground v.1.15,2013-03-31 16:43:00,
2013-03-31 11:48:00,48.7,30.4,29.91,NNW,337,9.0,14.0,49,0.00,,,0.00,751,Wunderground v.1.15,2013-03-31 16:48:00,
2013-03-31 11:53:00,48.9,31.1,29.91,NNW,340,7.0,13.0,50,0.00,,,0.00,763,Wunderground v.1.15,2013-03-31 16:53:00,
2013-03-31 11:58:00,49.2,30.3,29.90,North,355,13.0,20.0,48,0.00,,,0.00,768,Wunderground v.1.15,2013-03-31 16:58:00,
2013-03-31 12:03:00,50.0,31.1,29.91,North,355,7.0,14.0,48,0.00,,,0.00,775,Wunderground v.1.15,2013-03-31 17:03:00,
2013-03-31 12:08:00,50.0,31.1,29.91,NNE,17,11.0,14.0,48,0.00,,,0.00,782,Wunderground v.1.15,2013-03-31 17:08:00,
2013-03-31 12:13:00,50.2,30.7,29.90,NW,315,8.0,15.0,47,0.00,,,0.00,793,Wunderground v.1.15,2013-03-31 17:13:00,
2013-03-31 12:18:00,49.4,28.9,29.90,NNW,338,8.0,15.0,45,0.00,,,0.00,802,Wunderground v.1.15,2013-03-31 17:18:00,
2013-03-31 12:23:00,49.6,29.1,29.90,North,350,12.0,14.0,45,0.00,,,0.00,809,Wunderground v.1.15,2013-03-31 17:23:00,
2013-03-31 12:28:00,50.4,30.9,29.90,North,355,8.0,14.0,47,0.00,,,0.00,817,Wunderground v.1.15,2013-03-31 17:28:00,
2013-03-31 12:34:00,50.6,29.5,29.90,North,5,10.0,21.0,44,0.00,,,0.00,823,Wunderground v.1.15,2013-03-31 17:34:00,
2013-03-31 12:39:00,50.8,30.2,29.90,NNW,342,7.0,21.0,45,0.00,,,0.00,824,Wunderground v.1.15,2013-03-31 17:39:00,
2013-03-31 12:44:00,51.3,31.2,29.90,North,355,7.0,11.0,46,0.00,,,0.00,828,Wunderground v.1.15,2013-03-31 17:44:00,
2013-03-31 12:49:00,51.5,30.3,29.90,NNW,342,10.0,16.0,44,0.00,,,0.00,837,Wunderground v.1.15,2013-03-31 17:49:00,
2013-03-31 12:54:00,51.7,30.5,29.90,NNW,332,11.0,15.0,44,0.00,,,0.00,840,Wunderground v.1.15,2013-03-31 17:54:00,
2013-03-31 12:59:00,51.1,29.9,29.89,NW,318,5.0,15.0,44,0.00,,,0.00,846,Wunderground v.1.15,2013-03-31 17:59:00,
2013-03-31 13:04:00,51.8,32.2,29.89,NW,326,5.0,9.0,47,0.00,,,0.00,846,Wunderground v.1.15,2013-03-31 18:04:00,
2013-03-31 13:09:00,51.9,32.3,29.89,NW,305,5.0,14.0,47,0.00,,,0.00,849,Wunderground v.1.15,2013-03-31 18:09:00,
2013-03-31 13:15:00,52.5,32.8,29.89,WNW,296,3.0,10.0,47,0.00,,,0.00,853,Wunderground v.1.15,2013-03-31 18:15:00,
2013-03-31 13:20:00,51.5,31.4,29.89,NW,323,2.0,10.0,46,0.00,,,0.00,856,Wunderground v.1.15,2013-03-31 18:20:00,
2013-03-31 13:24:00,52.2,32.6,29.89,North,355,10.0,18.0,47,0.00,,,0.00,858,Wunderground v.1.15,2013-03-31 18:24:00,
2013-03-31 13:29:00,52.4,32.2,29.89,West,277,8.0,18.0,46,0.00,,,0.00,863,Wunderground v.1.15,2013-03-31 18:29:00,
2013-03-31 13:34:00,52.2,32.0,29.89,NW,321,7.0,12.0,46,0.00,,,0.00,863,Wunderground v.1.15,2013-03-31 18:34:00,
2013-03-31 13:39:00,52.4,31.1,29.89,North,5,7.0,12.0,44,0.00,,,0.00,861,Wunderground v.1.15,2013-03-31 18:39:00,
2013-03-31 13:44:00,52.6,31.3,29.88,NNE,21,11.0,12.0,44,0.00,,,0.00,861,Wunderground v.1.15,2013-03-31 18:44:00,
2013-03-31 13:49:00,53.4,32.6,29.88,WNW,297,6.0,15.0,45,0.00,,,0.00,867,Wunderground v.1.15,2013-03-31 18:49:00,
2013-03-31 13:55:00,53.4,32.6,29.88,NNE,29,7.0,12.0,45,0.00,,,0.00,863,Wunderground v.1.15,2013-03-31 18:55:00,
2013-03-31 14:00:00,53.7,32.8,29.88,NNW,330,9.0,16.0,45,0.00,,,0.00,863,Wunderground v.1.15,2013-03-31 19:00:00,
2013-03-31 14:05:00,53.3,30.8,29.88,North,10,6.0,12.0,42,0.00,,,0.00,860,Wunderground v.1.15,2013-03-31 19:05:00,
2013-03-31 14:10:00,52.8,30.9,29.88,North,355,8.0,12.0,43,0.00,,,0.00,863,Wunderground v.1.15,2013-03-31 19:10:00,
2013-03-31 14:15:00,53.1,31.2,29.88,North,11,4.0,13.0,43,0.00,,,0.00,875,Wunderground v.1.15,2013-03-31 19:15:00,
2013-03-31 14:20:00,53.3,30.8,29.88,WNW,293,3.0,15.0,42,0.00,,,0.00,884,Wunderground v.1.15,2013-03-31 19:20:00,
2013-03-31 14:25:00,53.4,31.4,29.88,North,355,8.0,12.0,43,0.00,,,0.00,872,Wunderground v.1.15,2013-03-31 19:25:00,
2013-03-31 14:30:00,53.3,31.4,29.87,North,355,8.0,12.0,43,0.00,,,0.00,851,Wunderground v.1.15,2013-03-31 19:30:00,
2013-03-31 14:35:00,53.7,31.7,29.87,North,355,4.0,14.0,43,0.00,,,0.00,844,Wunderground v.1.15,2013-03-31 19:35:00,
2013-03-31 14:40:00,52.9,29.2,29.87,ENE,62,1.0,5.0,40,0.00,,,0.00,835,Wunderground v.1.15,2013-03-31 19:40:00,
2013-03-31 14:45:00,53.5,31.0,29.87,North,355,9.0,14.0,42,0.00,,,0.00,475,Wunderground v.1.15,2013-03-31 19:45:00,
2013-03-31 14:50:00,53.6,31.0,29.87,North,5,6.0,10.0,42,0.00,,,0.00,912,Wunderground v.1.15,2013-03-31 19:50:00,
2013-03-31 14:55:00,53.9,30.7,29.87,NE,38,12.0,13.0,41,0.00,,,0.00,963,Wunderground v.1.15,2013-03-31 19:55:00,
2013-03-31 15:00:00,53.7,29.3,29.87,NNE,15,6.0,7.0,39,0.00,,,0.00,654,Wunderground v.1.15,2013-03-31 20:00:00,
2013-03-31 15:05:00,54.1,32.1,29.87,NNW,335,5.0,7.0,43,0.00,,,0.00,545,Wunderground v.1.15,2013-03-31 20:05:00,
2013-03-31 15:10:00,53.6,29.8,29.87,North,5,6.0,8.0,40,0.00,,,0.00,557,Wunderground v.1.15,2013-03-31 20:10:00,
2013-03-31 15:15:00,53.2,28.9,29.86,North,11,7.0,12.0,39,0.00,,,0.00,557,Wunderground v.1.15,2013-03-31 20:15:00,
2013-03-31 15:20:00,53.3,29.6,29.86,North,350,6.0,10.0,40,0.00,,,0.00,524,Wunderground v.1.15,2013-03-31 20:20:00,
2013-03-31 15:25:00,52.7,29.6,29.86,NNE,19,5.0,14.0,41,0.00,,,0.00,432,Wunderground v.1.15,2013-03-31 20:25:00,
2013-03-31 15:30:00,53.5,29.7,29.86,North,360,10.0,10.0,40,0.00,,,0.00,863,Wunderground v.1.15,2013-03-31 20:30:00,
2013-03-31 15:35:00,54.1,29.7,29.85,NNE,32,6.0,11.0,39,0.00,,,0.00,805,Wunderground v.1.15,2013-03-31 20:35:00,
2013-03-31 15:41:00,54.3,29.8,29.85,NE,35,6.0,9.0,39,0.00,,,0.00,770,Wunderground v.1.15,2013-03-31 20:41:00,
2013-03-31 15:46:00,54.7,30.2,29.85,NNW,346,3.0,15.0,39,0.00,,,0.00,758,Wunderground v.1.15,2013-03-31 20:46:00,
2013-03-31 15:51:00,54.5,28.7,29.85,WSW,257,3.0,7.0,37,0.00,,,0.00,752,Wunderground v.1.15,2013-03-31 20:51:00,
2013-03-31 15:56:00,54.2,29.8,29.85,NE,37,8.0,8.0,39,0.00,,,0.00,747,Wunderground v.1.15,2013-03-31 20:56:00,
2013-03-31 16:02:00,54.2,27.8,29.85,NNE,19,4.0,10.0,36,0.00,,,0.00,754,Wunderground v.1.15,2013-03-31 21:02:00,
2013-03-31 16:07:00,54.0,28.3,29.84,NNE,24,7.0,12.0,37,0.00,,,0.00,754,Wunderground v.1.15,2013-03-31 21:07:00,
2013-03-31 16:12:00,53.6,27.3,29.84,North,9,1.0,6.0,36,0.00,,,0.00,244,Wunderground v.1.15,2013-03-31 21:12:00,
2013-03-31 16:17:00,53.4,29.7,29.83,North,360,4.0,7.0,40,0.00,,,0.00,352,Wunderground v.1.15,2013-03-31 21:17:00,
2013-03-31 16:22:00,53.6,27.9,29.83,NNE,19,6.0,12.0,37,0.00,,,0.00,657,Wunderground v.1.15,2013-03-31 21:22:00,
2013-03-31 16:27:00,53.9,27.5,29.83,NNE,17,8.0,12.0,36,0.00,,,0.00,422,Wunderground v.1.15,2013-03-31 21:27:00,
2013-03-31 16:32:00,53.2,28.2,29.83,ESE,109,2.0,8.0,38,0.00,,,0.00,267,Wunderground v.1.15,2013-03-31 21:32:00,
2013-03-31 16:37:00,52.9,26.6,29.84,NE,34,9.0,14.0,36,0.00,,,0.00,278,Wunderground v.1.15,2013-03-31 21:37:00,
2013-03-31 16:42:00,52.8,26.6,29.83,NE,38,10.0,18.0,36,0.00,,,0.00,281,Wunderground v.1.15,2013-03-31 21:42:00,
2013-03-31 16:48:00,52.4,26.2,29.84,NNE,16,9.0,18.0,36,0.00,,,0.00,271,Wunderground v.1.15,2013-03-31 21:48:00,
2013-03-31 16:53:00,52.0,25.8,29.84,NE,41,12.0,13.0,36,0.00,,,0.00,329,Wunderground v.1.15,2013-03-31 21:53:00,
2013-03-31 16:58:00,51.9,26.4,29.84,North,360,9.0,15.0,37,0.00,,,0.00,316,Wunderground v.1.15,2013-03-31 21:58:00,
2013-03-31 17:03:00,51.9,26.4,29.84,North,360,9.0,11.0,37,0.00,,,0.00,264,Wunderground v.1.15,2013-03-31 22:03:00,
2013-03-31 17:08:00,51.5,25.4,29.84,North,5,5.0,11.0,36,0.00,,,0.00,209,Wunderground v.1.15,2013-03-31 22:08:00,
2013-03-31 17:13:00,51.3,25.2,29.84,NNE,19,10.0,13.0,36,0.00,,,0.00,302,Wunderground v.1.15,2013-03-31 22:13:00,
2013-03-31 17:18:00,51.3,25.9,29.85,NNE,24,7.0,14.0,37,0.00,,,0.00,366,Wunderground v.1.15,2013-03-31 22:18:00,
2013-03-31 17:23:00,51.2,26.4,29.85,NNE,33,19.0,23.0,38,0.00,,,0.00,346,Wunderground v.1.15,2013-03-31 22:23:00,
2013-03-31 17:28:00,50.4,27.0,29.85,NNE,22,13.0,23.0,40,0.00,,,0.00,304,Wunderground v.1.15,2013-03-31 22:28:00,
2013-03-31 17:33:00,50.0,26.6,29.85,NE,40,11.0,17.0,40,0.00,,,0.00,288,Wunderground v.1.15,2013-03-31 22:33:00,
2013-03-31 17:38:00,49.4,26.1,29.86,NNE,15,16.0,21.0,40,0.00,,,0.00,248,Wunderground v.1.15,2013-03-31 22:38:00,
2013-03-31 17:43:00,48.7,26.0,29.86,NNE,24,15.0,23.0,41,0.00,,,0.00,234,Wunderground v.1.15,2013-03-31 22:43:00,
2013-03-31 17:48:00,48.2,25.0,29.87,NNE,30,11.0,23.0,40,0.00,,,0.00,186,Wunderground v.1.15,2013-03-31 22:48:00,
2013-03-31 17:53:00,47.5,24.9,29.87,NNE,23,11.0,21.0,41,0.00,,,0.00,158,Wunderground v.1.15,2013-03-31 22:53:00,
2013-03-31 17:58:00,47.1,25.2,29.88,NE,46,13.0,21.0,42,0.00,,,0.00,132,Wunderground v.1.15,2013-03-31 22:58:00,
2013-03-31 18:03:00,46.8,24.9,29.88,NE,38,11.0,17.0,42,0.00,,,0.00,123,Wunderground v.1.15,2013-03-31 23:03:00,
2013-03-31 18:09:00,46.6,25.3,29.88,NE,49,14.0,18.0,43,0.00,,,0.00,121,Wunderground v.1.15,2013-03-31 23:09:00,
2013-03-31 18:14:00,46.3,25.0,29.88,NNE,32,13.0,19.0,43,0.00,,,0.00,113,Wunderground v.1.15,2013-03-31 23:14:00,
2013-03-31 18:19:00,46.2,25.5,29.89,NNE,32,14.0,19.0,44,0.00,,,0.00,97,Wunderground v.1.15,2013-03-31 23:19:00,
2013-03-31 18:24:00,45.5,25.9,29.88,NNE,28,15.0,21.0,46,0.00,,,0.00,86,Wunderground v.1.15,2013-03-31 23:24:00,
2013-03-31 18:29:00,44.8,25.8,29.89,NNE,12,8.0,24.0,47,0.00,,,0.00,81,Wunderground v.1.15,2013-03-31 23:29:00,
2013-03-31 18:34:00,44.3,26.3,29.89,NNE,26,11.0,16.0,49,0.00,,,0.00,83,Wunderground v.1.15,2013-03-31 23:34:00,
2013-03-31 18:39:00,44.0,26.0,29.90,North,355,14.0,21.0,49,0.00,,,0.00,84,Wunderground v.1.15,2013-03-31 23:39:00,
2013-03-31 18:44:00,43.6,26.2,29.90,North,9,9.0,18.0,50,0.00,,,0.00,84,Wunderground v.1.15,2013-03-31 23:44:00,
2013-03-31 18:49:00,43.5,26.6,29.91,NNE,27,11.0,18.0,51,0.00,,,0.00,42,Wunderground v.1.15,2013-03-31 23:49:00,
2013-03-31 18:54:00,43.3,26.4,29.91,NNE,17,9.0,18.0,51,0.00,,,0.00,23,Wunderground v.1.15,2013-03-31 23:54:00,
2013-03-31 18:59:00,43.1,26.2,29.92,NNE,33,11.0,18.0,51,0.00,,,0.00,16,Wunderground v.1.15,2013-03-31 23:59:00,
2013-03-31 19:04:00,43.0,26.6,29.92,NNE,30,14.0,18.0,52,0.00,,,0.00,12,Wunderground v.1.15,2013-04-01 00:04:00,
2013-03-31 19:09:00,42.6,27.1,29.93,NNE,31,11.0,22.0,54,0.00,,,0.00,12,Wunderground v.1.15,2013-04-01 00:09:00,
2013-03-31 19:14:00,42.2,27.2,29.93,NE,38,18.0,20.0,55,0.00,,,0.00,9,Wunderground v.1.15,2013-04-01 00:14:00,
2013-03-31 19:19:00,41.6,26.6,29.93,NNE,30,10.0,20.0,55,0.00,,,0.00,11,Wunderground v.1.15,2013-04-01 00:19:00,
2013-03-31 19:24:00,41.0,26.9,29.93,NE,38,15.0,22.0,57,0.00,,,0.00,18,Wunderground v.1.15,2013-04-01 00:24:00,
2013-03-31 19:29:00,40.4,27.6,29.95,NNE,13,15.0,22.0,60,0.00,,,0.00,12,Wunderground v.1.15,2013-04-01 00:29:00,
2013-03-31 19:34:00,39.8,27.8,29.95,NE,36,15.0,22.0,62,0.00,,,0.00,12,Wunderground v.1.15,2013-04-01 00:34:00,
2013-03-31 19:39:00,39.3,28.5,29.95,NNE,26,20.0,22.0,65,0.00,,,0.00,11,Wunderground v.1.15,2013-04-01 00:39:00,
2013-03-31 19:44:00,39.0,28.6,29.95,North,9,11.0,18.0,66,0.00,,,0.00,9,Wunderground v.1.15,2013-04-01 00:44:00,
2013-03-31 19:49:00,38.3,28.7,29.96,North,9,9.0,20.0,68,0.00,,,0.00,0,Wunderground v.1.15,2013-04-01 00:49:00,
2013-03-31 19:54:00,37.7,28.8,29.97,NNE,23,10.0,20.0,70,0.00,,,0.00,0,Wunderground v.1.15,2013-04-01 00:54:00,
2013-03-31 19:59:00,37.2,29.0,29.97,NNE,17,13.0,21.0,72,0.00,,,0.00,0,Wunderground v.1.15,2013-04-01 00:59:00,
2013-03-31 20:04:00,36.7,29.2,29.97,NE,35,11.0,21.0,74,0.00,,,0.00,0,Wunderground v.1.15,2013-04-01 01:04:00,
2013-03-31 20:09:00,36.2,29.0,29.98,NE,38,13.0,21.0,75,0.00,,,0.00,0,Wunderground v.1.15,2013-04-01 01:09:00,
2013-03-31 20:14:00,35.7,29.2,29.98,NE,34,13.0,16.0,77,0.00,,,0.00,0,Wunderground v.1.15,2013-04-01 01:14:00,
2013-03-31 20:19:00,35.2,29.0,29.99,NE,35,13.0,19.0,78,0.00,,,0.00,0,Wunderground v.1.15,2013-04-01 01:19:00,
2013-03-31 20:24:00,34.8,29.0,29.99,NNE,27,12.0,22.0,79,0.00,,,0.00,0,Wunderground v.1.15,2013-04-01 01:24:00,
2013-03-31 20:29:00,34.4,28.6,29.99,NE,41,10.0,22.0,79,0.00,,,0.00,0,Wunderground v.1.15,2013-04-01 01:29:00,
2013-03-31 20:34:00,34.2,28.7,30.00,NE,36,7.0,17.0,80,0.00,,,0.00,0,Wunderground v.1.15,2013-04-01 01:34:00,
2013-03-31 20:39:00,34.2,28.7,30.00,North,351,11.0,17.0,80,0.00,,,0.00,0,Wunderground v.1.15,2013-04-01 01:39:00,
2013-03-31 20:44:00,34.1,28.9,30.01,North,5,15.0,15.0,81,0.00,,,0.00,0,Wunderground v.1.15,2013-04-01 01:44:00,
2013-03-31 20:49:00,33.9,28.4,30.01,North,355,16.0,18.0,80,0.00,,,0.00,0,Wunderground v.1.15,2013-04-01 01:49:00,
2013-03-31 20:54:00,33.7,28.5,30.01,NNE,23,10.0,15.0,81,0.00,,,0.00,0,Wunderground v.1.15,2013-04-01 01:54:00,
2013-03-31 20:59:00,33.7,28.8,30.01,NE,46,12.0,20.0,82,0.00,,,0.00,0,Wunderground v.1.15,2013-04-01 01:59:00,
2013-03-31 21:04:00,33.5,28.6,30.02,NNE,26,16.0,19.0,82,0.00,,,0.00,0,Wunderground v.1.15,2013-04-01 02:04:00,
2013-03-31 21:09:00,33.3,28.7,30.02,NE,41,8.0,19.0,83,0.00,,,0.00,0,Wunderground v.1.15,2013-04-01 02:09:00,
2013-03-31 21:14:00,33.0,28.4,30.03,NNE,17,7.0,15.0,83,0.00,,,0.00,0,Wunderground v.1.15,2013-04-01 02:14:00,
2013-03-31 21:19:00,32.8,27.9,30.03,NNE,12,11.0,16.0,82,0.00,,,0.00,0,Wunderground v.1.15,2013-04-01 02:19:00,
2013-03-31 21:24:00,32.6,28.0,30.04,NNE,21,8.0,15.0,83,0.00,,,0.00,0,Wunderground v.1.15,2013-04-01 02:24:00,
2013-03-31 21:29:00,32.4,27.8,30.04,NNE,21,5.0,18.0,83,0.00,,,0.00,0,Wunderground v.1.15,2013-04-01 02:29:00,
2013-03-31 21:34:00,32.1,27.5,30.04,North,5,10.0,18.0,83,0.00,,,0.00,0,Wunderground v.1.15,2013-04-01 02:34:00,
2013-03-31 21:39:00,31.8,27.2,30.04,NE,42,9.0,18.0,83,0.00,,,0.00,0,Wunderground v.1.15,2013-04-01 02:39:00,
2013-03-31 21:44:00,31.4,27.1,30.05,NNE,32,14.0,15.0,84,0.00,,,0.00,0,Wunderground v.1.15,2013-04-01 02:44:00,
2013-03-31 21:49:00,31.2,26.9,30.05,North,10,11.0,16.0,84,0.00,,,0.00,0,Wunderground v.1.15,2013-04-01 02:49:00,
2013-03-31 21:54:00,30.9,26.6,30.06,North,9,11.0,17.0,84,0.00,,,0.00,0,Wunderground v.1.15,2013-04-01 02:54:00,
2013-03-31 21:59:00,30.5,26.2,30.06,North,5,15.0,18.0,84,0.00,,,0.00,0,Wunderground v.1.15,2013-04-01 02:59:00,
2013-03-31 22:05:00,30.1,25.8,30.07,North,9,13.0,16.0,84,0.00,,,0.00,0,Wunderground v.1.15,2013-04-01 03:05:00,
2013-03-31 22:10:00,29.8,25.6,30.07,NNE,19,9.0,19.0,84,0.00,,,0.00,0,Wunderground v.1.15,2013-04-01 03:10:00,
2013-03-31 22:15:00,29.6,25.4,30.07,North,350,7.0,19.0,84,0.00,,,0.00,0,Wunderground v.1.15,2013-04-01 03:15:00,
2013-03-31 22:20:00,29.5,25.5,30.08,North,350,12.0,19.0,85,0.00,,,0.00,0,Wunderground v.1.15,2013-04-01 03:20:00,
2013-03-31 22:25:00,29.4,25.4,30.08,North,5,5.0,17.0,85,0.00,,,0.00,0,Wunderground v.1.15,2013-04-01 03:25:00,
2013-03-31 22:30:00,29.4,25.4,30.08,North,5,6.0,17.0,85,0.00,,,0.00,0,Wunderground v.1.15,2013-04-01 03:30:00,
2013-03-31 22:35:00,29.3,25.4,30.09,North,9,7.0,17.0,85,0.00,,,0.00,0,Wunderground v.1.15,2013-04-01 03:35:00,
2013-03-31 22:40:00,29.2,25.3,30.08,NE,39,7.0,19.0,85,0.00,,,0.00,0,Wunderground v.1.15,2013-04-01 03:40:00,
2013-03-31 22:45:00,29.1,25.2,30.09,NNE,28,5.0,14.0,85,0.00,,,0.00,0,Wunderground v.1.15,2013-04-01 03:45:00,
2013-03-31 22:50:00,29.1,25.2,30.09,North,360,14.0,15.0,85,0.00,,,0.00,0,Wunderground v.1.15,2013-04-01 03:50:00,
2013-03-31 22:55:00,28.7,24.8,30.09,NNE,17,16.0,18.0,85,0.00,,,0.00,0,Wunderground v.1.15,2013-04-01 03:55:00,
2013-03-31 23:00:00,28.5,24.6,30.10,North,350,11.0,18.0,85,0.00,,,0.00,0,Wunderground v.1.15,2013-04-01 04:00:00,
2013-03-31 23:05:00,28.5,24.6,30.10,NNE,28,14.0,17.0,85,0.00,,,0.00,0,Wunderground v.1.15,2013-04-01 04:05:00,
2013-03-31 23:10:00,28.5,24.3,30.10,North,10,14.0,15.0,84,0.00,,,0.00,0,Wunderground v.1.15,2013-04-01 04:10:00,
2013-03-31 23:12:00,28.5,24.3,30.10,North,360,10.0,15.0,84,0.00,,,0.00,0,Wunderground v.1.15,2013-04-01 04:12:00,
2013-03-31 23:17:00,28.5,24.6,30.10,North,355,7.0,15.0,85,0.00,,,0.00,0,Wunderground v.1.15,2013-04-01 04:17:00,
2013-03-31 23:22:00,28.5,24.3,30.10,North,5,7.0,14.0,84,0.00,,,0.00,0,Wunderground v.1.15,2013-04-01 04:22:00,
2013-03-31 23:27:00,28.3,24.1,30.10,NNE,12,12.0,15.0,84,0.00,,,0.00,0,Wunderground v.1.15,2013-04-01 04:27:00,
2013-03-31 23:32:00,28.1,23.6,30.10,North,5,10.0,11.0,83,0.00,,,0.00,0,Wunderground v.1.15,2013-04-01 04:32:00,
2013-03-31 23:37:00,28.0,23.2,30.11,NNE,15,9.0,14.0,82,0.00,,,0.00,0,Wunderground v.1.15,2013-04-01 04:37:00,
2013-03-31 23:42:00,27.9,23.1,30.11,NNW,342,9.0,14.0,82,0.00,,,0.00,0,Wunderground v.1.15,2013-04-01 04:42:00,
2013-03-31 23:48:00,27.5,22.7,30.11,North,10,9.0,14.0,82,0.00,,,0.00,0,Wunderground v.1.15,2013-04-01 04:48:00,
2013-03-31 23:52:00,27.1,22.0,30.11,North,5,6.0,9.0,81,0.00,,,0.00,0,Wunderground v.1.15,2013-04-01 04:52:00,
2013-03-31 23:57:00,26.7,21.7,30.11,North,5,4.0,12.0,81,0.00,,,0.00,0,Wunderground v.1.15,2013-04-01 04:57:00,